グラン・カナリア島 の空港の天気 - METARとTAF

グラン・カナリア空港 ( GCLP / LPA ) - グラン・カナリア島
飛行場実況気象(Metar)
観測時間01/24 12:00 WET (01/24 12:00 UTC)
風向・風速南東 3m/s 瞬間風速8m/s
視程10km以上
天気現象
少しの雲 雲底高度 1070m
気温20℃
湿度60%
気圧1022hPa
METARGCLP 241200Z 14006G16KT 080V190 9999 FEW035 20/12 Q1022 NOSIG
過去の天気等 Google飛行場航空写真 Wunderground天気予報

過去48時間のMETAR

飛行場予報(TAF)
発表時間: 1/24 08:00 WET (1/24 08:00 UTC)
予報対象時間: 24日9時 WET ~ 25日9時 WET
風向・風速東北東 3m/s
視程10km以上
全天の4割程度の雲 雲底高度 1070m
TAF GCLP 240800Z 2409/2509 07006KT 9999 SCT035 TX20/2415Z TN15/2506Z